Airfield :
LOGIN :

Register | Disclaimer

   EN    FR    IT 

 










Legend :    VFR   Marginal VFR   IFR   Intensive IFR   Very Intensive IFR
Visi :
Ceiling :
>= 8 km
>= 3000ft
5 to 8 km
1000 to 3000 ft
1500m to 5 km
500 to 1000 ft
800 to 1500m
200 to 500 ft
< 800m
< 200 ft
Symbols :   Thunderstorms  Fog  Heavy snow  Heavy precipitations  Wind > 20 kt
SIGMETs :     Misc.  Thunderstorms  Icing  Turbulence  Mountain Waves  Volcanic Ashes







- Airport Elevation : 1046 ft
- IATA code : NUE


EDDN - Nuremberg

CURRENT METAR :
  • 122150Z 11007KT CAVOK 07/06 Q1021

EXPIRED METARs :
  • 122120Z 14008KT CAVOK 08/06 Q1021
  • 122050Z 13009KT CAVOK 09/07 Q1021 NOSIG
  • 122020Z 13008KT CAVOK 09/07 Q1021 NOSIG
  • 121950Z 13010KT CAVOK 09/07 Q1021 NOSIG
  • 121920Z 13010KT CAVOK 10/07 Q1021 NOSIG

TAF TAF EDDN
Valid from the 12 at 18:00 until the 13 at 18:00 UTC


121700Z 1218/1318 13005KT CAVOK
BECMG 1307/1309 27007KT BKN014
BECMG 1311/1313 BKN020
No reported NOTAMs for that airfield.



MET'MAP, your aeronautical weather chart ! - Copyright ORBIFLY December 2007 - Disclaimer

ORBIFLY MET'MAP TEAM :

Programming & Development : Alexandra Zaïnal
Concept & Development : Baudouin d'Aumeries
Co-Development & Prog : Marc-Olivier Méhu
Technical & hardware support : Manuel Goepfert

Contact : metmap@orbifly.com




SOURCES & CREDITS :

   NOAA